createdAt,value
2017-08-03T00:00:42.672Z,24.80
2017-08-03T00:03:16.194Z,24.90
2017-08-03T00:05:50.401Z,24.90
2017-08-03T00:08:21.069Z,25.00
2017-08-03T00:10:51.121Z,25.00
2017-08-03T00:13:22.134Z,25.00
2017-08-03T00:15:53.931Z,24.90
2017-08-03T00:18:26.309Z,24.90
2017-08-03T00:20:57.645Z,25.00
2017-08-03T00:23:27.940Z,25.10
2017-08-03T00:25:58.287Z,25.10
2017-08-03T00:28:28.772Z,25.20
2017-08-03T00:30:58.940Z,25.30
2017-08-03T00:33:29.975Z,25.30
2017-08-03T00:36:05.996Z,25.30
2017-08-03T00:38:36.296Z,25.40
2017-08-03T00:41:06.599Z,25.50
2017-08-03T00:43:36.709Z,25.50
2017-08-03T00:46:06.953Z,25.60
2017-08-03T00:48:37.240Z,25.60
2017-08-03T00:51:07.696Z,25.60
2017-08-03T00:53:38.350Z,25.60
2017-08-03T00:56:12.654Z,25.70
2017-08-03T00:58:46.253Z,25.80
2017-08-03T01:01:17.454Z,25.80
2017-08-03T01:03:48.670Z,25.80
2017-08-03T01:06:22.300Z,25.90
2017-08-03T01:08:52.978Z,26.00
2017-08-03T01:11:26.989Z,26.20
2017-08-03T01:14:00.398Z,26.20
2017-08-03T01:16:30.575Z,26.30
2017-08-03T01:19:00.869Z,26.40
2017-08-03T01:21:35.457Z,26.60
2017-08-03T01:24:06.665Z,27.90
2017-08-03T01:26:37.062Z,27.90
2017-08-03T01:29:07.560Z,28.90
2017-08-03T01:31:38.872Z,29.30
2017-08-03T01:34:09.358Z,29.30
2017-08-03T01:36:40.708Z,29.10
2017-08-03T01:39:12.153Z,28.90
2017-08-03T01:41:42.395Z,28.90
2017-08-03T01:44:12.390Z,28.70
2017-08-03T01:46:47.356Z,28.10
2017-08-03T01:49:17.480Z,28.10
2017-08-03T01:51:47.886Z,27.90
2017-08-03T01:54:18.595Z,27.90
2017-08-03T01:56:49.661Z,27.90
2017-08-03T01:59:23.436Z,27.90
2017-08-03T02:01:57.775Z,27.80
2017-08-03T02:04:29.657Z,27.90
2017-08-03T02:07:00.506Z,27.90
2017-08-03T02:09:30.742Z,28.20
2017-08-03T02:12:01.577Z,28.50
2017-08-03T02:14:39.571Z,28.80
2017-08-03T02:17:10.397Z,29.00
2017-08-03T02:19:42.294Z,29.40
2017-08-03T02:22:12.793Z,29.40
2017-08-03T02:24:45.719Z,29.60
2017-08-03T02:27:16.207Z,29.70
2017-08-03T02:29:46.617Z,30.00
2017-08-03T02:32:16.964Z,30.20
2017-08-03T02:34:47.393Z,30.10
2017-08-03T02:37:17.920Z,30.00
2017-08-03T02:39:48.092Z,30.20
2017-08-03T02:42:18.381Z,30.30
2017-08-03T02:44:48.796Z,30.50
2017-08-03T02:47:19.335Z,30.50
2017-08-03T02:49:50.847Z,30.40
2017-08-03T02:52:21.713Z,30.40
2017-08-03T02:54:52.803Z,30.40
2017-08-03T02:57:23.616Z,30.30
2017-08-03T02:59:55.001Z,30.00
2017-08-03T03:02:27.182Z,30.00
2017-08-03T03:04:58.092Z,30.00
2017-08-03T03:07:30.069Z,30.20
2017-08-03T03:10:00.431Z,30.50
2017-08-03T03:12:31.300Z,30.60
2017-08-03T03:15:03.677Z,30.80
2017-08-03T03:17:36.984Z,31.00
2017-08-03T03:20:09.940Z,31.30
2017-08-03T03:22:41.350Z,31.70
2017-08-03T03:25:11.724Z,31.60
2017-08-03T03:27:42.725Z,31.90
2017-08-03T03:30:13.013Z,31.90
2017-08-03T03:32:43.222Z,31.80
2017-08-03T03:35:13.397Z,31.80
2017-08-03T03:37:43.730Z,31.90
2017-08-03T03:40:13.873Z,32.20
2017-08-03T03:42:45.040Z,32.20
2017-08-03T03:45:15.201Z,32.20
2017-08-03T03:47:45.501Z,31.60
2017-08-03T03:50:15.806Z,31.30
2017-08-03T03:52:46.240Z,31.30
2017-08-03T03:55:18.781Z,31.30
2017-08-03T03:57:49.116Z,31.30
2017-08-03T04:00:20.173Z,31.40
2017-08-03T04:02:52.380Z,31.20
2017-08-03T04:05:23.219Z,31.20
2017-08-03T04:07:54.414Z,31.30
2017-08-03T04:10:25.584Z,31.70
2017-08-03T04:12:56.117Z,31.70
2017-08-03T04:15:30.609Z,31.50
2017-08-03T04:18:01.830Z,31.50
2017-08-03T04:20:33.254Z,31.50
2017-08-03T04:23:03.936Z,31.40
2017-08-03T04:25:34.280Z,31.30
2017-08-03T04:28:05.339Z,31.00
2017-08-03T04:30:36.592Z,30.90
2017-08-03T04:33:07.037Z,30.90
2017-08-03T04:35:37.239Z,30.90
2017-08-03T04:38:07.484Z,30.90
2017-08-03T04:40:37.891Z,30.80
2017-08-03T04:43:08.126Z,30.80
2017-08-03T04:45:38.416Z,30.70
2017-08-03T04:48:08.820Z,30.70
2017-08-03T04:50:39.140Z,30.70
2017-08-03T04:53:09.324Z,31.00
2017-08-03T04:55:39.960Z,31.20
2017-08-03T04:58:10.226Z,31.50
2017-08-03T05:00:40.658Z,31.70
2017-08-03T05:03:10.771Z,31.90
2017-08-03T05:05:40.861Z,32.00
2017-08-03T05:08:11.303Z,32.40
2017-08-03T05:10:41.756Z,32.80
2017-08-03T05:13:12.137Z,33.00
2017-08-03T05:15:42.475Z,33.20
2017-08-03T05:18:12.893Z,33.40
2017-08-03T05:20:43.424Z,33.40
2017-08-03T05:23:14.096Z,33.80
2017-08-03T05:25:44.656Z,34.10
2017-08-03T05:28:15.732Z,34.40
2017-08-03T05:30:46.056Z,34.40
2017-08-03T05:33:16.426Z,34.30
2017-08-03T05:35:46.500Z,34.10
2017-08-03T05:38:16.941Z,33.80
2017-08-03T05:40:47.270Z,33.40
2017-08-03T05:43:17.751Z,33.20
2017-08-03T05:45:48.014Z,32.90
2017-08-03T05:48:18.248Z,32.90
2017-08-03T05:50:48.552Z,33.00
2017-08-03T05:53:24.363Z,32.90
2017-08-03T05:55:55.095Z,32.90
2017-08-03T05:58:25.379Z,32.90
2017-08-03T06:00:55.729Z,33.00
2017-08-03T06:03:26.038Z,32.90
2017-08-03T06:05:56.167Z,32.80
2017-08-03T06:08:26.579Z,32.80
2017-08-03T06:10:57.102Z,32.80
2017-08-03T06:13:27.387Z,32.80
2017-08-03T06:15:57.893Z,32.80
2017-08-03T06:18:28.196Z,33.00
2017-08-03T06:20:58.517Z,33.10
2017-08-03T06:23:28.953Z,33.10
2017-08-03T06:25:59.559Z,33.30
2017-08-03T06:28:30.522Z,33.30
2017-08-03T06:31:01.664Z,33.60
2017-08-03T06:33:31.797Z,33.50
2017-08-03T06:36:02.009Z,33.90
2017-08-03T06:38:33.156Z,34.30
2017-08-03T06:41:03.572Z,34.40
2017-08-03T06:43:34.636Z,34.00
2017-08-03T06:46:04.749Z,34.00
2017-08-03T06:48:35.181Z,33.80
2017-08-03T06:51:05.559Z,33.80
2017-08-03T06:53:36.483Z,33.80
2017-08-03T06:56:07.648Z,33.90
2017-08-03T06:58:38.477Z,34.10
2017-08-03T07:01:09.328Z,34.10
2017-08-03T07:03:39.592Z,34.00
2017-08-03T07:06:10.213Z,34.00
2017-08-03T07:08:41.318Z,34.40
2017-08-03T07:11:11.682Z,34.40
2017-08-03T07:13:42.769Z,34.30
2017-08-03T07:16:15.486Z,34.30
2017-08-03T07:18:46.326Z,34.20
2017-08-03T07:21:17.334Z,34.10
2017-08-03T07:23:48.289Z,34.10
2017-08-03T07:26:18.670Z,34.10
2017-08-03T07:28:49.324Z,34.20
2017-08-03T07:31:20.993Z,34.10
2017-08-03T07:33:51.934Z,33.90
2017-08-03T07:36:24.094Z,34.10
2017-08-03T07:38:55.010Z,34.20
2017-08-03T07:41:25.323Z,34.10
2017-08-03T07:43:56.484Z,33.80
2017-08-03T07:46:26.684Z,33.80
2017-08-03T07:49:01.496Z,33.70
2017-08-03T07:51:32.256Z,33.70
2017-08-03T07:54:05.743Z,33.60
2017-08-03T07:56:37.858Z,33.50
2017-08-03T07:59:10.807Z,33.20
2017-08-03T08:01:41.864Z,33.30
2017-08-03T08:04:18.273Z,33.50
2017-08-03T08:09:11.916Z,33.70
2017-08-03T08:11:43.176Z,34.40
2017-08-03T08:14:14.035Z,34.40
2017-08-03T08:16:46.909Z,34.80
2017-08-03T08:19:18.025Z,34.80
2017-08-03T08:21:54.800Z,35.10
2017-08-03T08:24:25.036Z,35.10
2017-08-03T08:27:01.220Z,35.40
2017-08-03T08:29:32.764Z,35.40
2017-08-03T08:32:04.013Z,35.10
2017-08-03T08:34:34.760Z,34.90
2017-08-03T08:37:05.222Z,35.00
2017-08-03T08:39:37.033Z,34.60
2017-08-03T08:42:07.318Z,34.60
2017-08-03T08:44:37.690Z,34.50
2017-08-03T08:47:08.065Z,34.20
2017-08-03T08:49:38.452Z,33.90
2017-08-03T08:52:08.789Z,33.80
2017-08-03T08:54:39.180Z,33.50
2017-08-03T08:57:12.136Z,33.30
2017-08-03T08:59:43.769Z,33.00
2017-08-03T09:02:14.517Z,33.00
2017-08-03T09:04:44.791Z,32.80
2017-08-03T09:07:15.740Z,32.80
2017-08-03T09:09:46.840Z,33.00
2017-08-03T09:12:17.825Z,33.10
2017-08-03T09:14:48.244Z,33.00
2017-08-03T09:17:19.641Z,33.00
2017-08-03T09:19:54.804Z,33.00
2017-08-03T09:22:26.601Z,32.90
2017-08-03T09:24:57.496Z,32.90
2017-08-03T09:27:28.670Z,32.70
2017-08-03T09:30:01.133Z,32.80
2017-08-03T09:32:33.088Z,32.80
2017-08-03T09:35:04.038Z,33.00
2017-08-03T09:37:36.901Z,33.20
2017-08-03T09:40:09.431Z,33.20
2017-08-03T09:42:42.643Z,33.20
2017-08-03T09:45:13.766Z,33.20
2017-08-03T09:47:47.116Z,33.40
2017-08-03T09:50:19.663Z,33.40
2017-08-03T09:52:50.954Z,33.40
2017-08-03T09:55:22.045Z,33.40
2017-08-03T09:57:53.526Z,33.20
2017-08-03T10:00:24.222Z,33.10
2017-08-03T10:02:54.384Z,33.00
2017-08-03T10:05:24.702Z,32.90
2017-08-03T10:07:55.150Z,32.60
2017-08-03T10:10:25.516Z,32.40
2017-08-03T10:13:01.974Z,32.30
2017-08-03T10:15:32.212Z,32.30
2017-08-03T10:18:03.529Z,32.30
2017-08-03T10:20:33.957Z,32.30
2017-08-03T10:23:06.194Z,32.30
2017-08-03T10:25:37.076Z,32.10
2017-08-03T10:28:08.055Z,31.80
2017-08-03T10:30:40.039Z,31.70
2017-08-03T10:33:10.508Z,31.60
2017-08-03T10:35:40.882Z,31.40
2017-08-03T10:38:11.209Z,31.30
2017-08-03T10:40:41.411Z,31.10
2017-08-03T10:43:12.603Z,31.30
2017-08-03T10:45:42.903Z,31.20
2017-08-03T10:48:13.826Z,31.30
2017-08-03T10:50:45.578Z,31.30
2017-08-03T10:53:21.205Z,31.30
2017-08-03T10:55:53.662Z,31.20
2017-08-03T10:58:24.372Z,31.30
2017-08-03T11:00:54.672Z,31.10
2017-08-03T11:03:26.382Z,30.90
2017-08-03T11:05:57.421Z,30.90
2017-08-03T11:08:30.740Z,30.70
2017-08-03T11:11:01.614Z,30.70
2017-08-03T11:13:33.781Z,30.50
2017-08-03T11:16:07.398Z,30.50
2017-08-03T11:18:39.316Z,30.50
2017-08-03T11:21:11.542Z,30.40
2017-08-03T11:23:44.302Z,30.30
2017-08-03T11:26:15.773Z,30.10
2017-08-03T11:28:46.604Z,30.10
2017-08-03T11:31:18.148Z,30.10
2017-08-03T11:33:48.607Z,30.00
2017-08-03T11:36:20.492Z,29.90
2017-08-03T11:38:51.090Z,29.90
2017-08-03T11:41:23.025Z,29.90
2017-08-03T11:43:54.244Z,29.80
2017-08-03T11:46:24.956Z,29.80
2017-08-03T11:48:55.051Z,29.80
2017-08-03T11:51:25.329Z,29.70
2017-08-03T11:53:55.641Z,29.70
2017-08-03T11:56:25.810Z,29.60
2017-08-03T11:58:56.782Z,29.50
2017-08-03T12:01:27.185Z,29.50
2017-08-03T12:03:58.288Z,29.40
2017-08-03T12:06:29.310Z,29.40
2017-08-03T12:09:00.204Z,29.30
2017-08-03T12:11:34.588Z,29.00
2017-08-03T12:14:05.659Z,29.00
2017-08-03T12:16:37.978Z,28.90
2017-08-03T12:19:08.716Z,28.90
2017-08-03T12:21:39.810Z,28.80
2017-08-03T12:24:11.812Z,28.80
2017-08-03T12:26:43.404Z,28.70
2017-08-03T12:29:16.650Z,28.70
2017-08-03T12:31:47.581Z,28.80
2017-08-03T12:34:26.756Z,28.70
2017-08-03T12:36:59.650Z,28.70
2017-08-03T12:39:31.382Z,28.70
2017-08-03T12:42:02.477Z,28.70
2017-08-03T12:44:34.348Z,28.70
2017-08-03T12:47:04.701Z,28.60
2017-08-03T12:49:34.961Z,28.50
2017-08-03T12:52:05.256Z,28.50
2017-08-03T12:54:35.837Z,28.40
2017-08-03T12:57:06.170Z,28.40
2017-08-03T12:59:37.105Z,28.40
2017-08-03T13:02:08.053Z,28.50
2017-08-03T13:04:39.022Z,28.60
2017-08-03T13:07:14.295Z,28.80
2017-08-03T13:09:44.983Z,28.80
2017-08-03T13:12:15.844Z,28.90
2017-08-03T13:14:46.750Z,29.00
2017-08-03T13:17:17.741Z,29.10
2017-08-03T13:19:48.640Z,29.20
2017-08-03T13:22:22.456Z,29.30
2017-08-03T13:24:53.290Z,29.30
2017-08-03T13:27:24.411Z,29.30
2017-08-03T13:29:55.045Z,29.40
2017-08-03T13:32:25.291Z,29.40
2017-08-03T13:34:59.924Z,29.40
2017-08-03T13:37:32.128Z,29.20
2017-08-03T13:40:03.167Z,29.10
2017-08-03T13:42:35.288Z,29.10
2017-08-03T13:45:05.610Z,29.10
2017-08-03T13:47:36.136Z,29.00
2017-08-03T13:50:06.896Z,28.80
2017-08-03T13:52:37.643Z,28.60
2017-08-03T13:55:11.052Z,28.30
2017-08-03T13:57:42.510Z,28.30
2017-08-03T14:00:14.930Z,28.20
2017-08-03T14:02:45.161Z,28.10
2017-08-03T14:05:15.589Z,28.10
2017-08-03T14:07:45.877Z,28.10
2017-08-03T14:10:16.253Z,28.10
2017-08-03T14:12:47.232Z,28.10
2017-08-03T14:15:18.220Z,28.10
2017-08-03T14:17:48.445Z,28.00
2017-08-03T14:20:19.556Z,28.00
2017-08-03T14:22:51.998Z,28.00
2017-08-03T14:25:24.291Z,28.00
2017-08-03T14:27:58.804Z,27.90
2017-08-03T14:30:32.923Z,28.00
2017-08-03T14:33:08.376Z,27.90
2017-08-03T14:35:41.255Z,28.00
2017-08-03T14:38:15.234Z,28.00
2017-08-03T14:40:47.629Z,28.00
2017-08-03T14:43:19.300Z,28.00
2017-08-03T14:45:55.067Z,28.00
2017-08-03T14:48:26.572Z,28.00
2017-08-03T14:50:58.568Z,28.00
2017-08-03T14:53:28.842Z,28.00
2017-08-03T14:55:59.707Z,28.00
2017-08-03T14:58:30.478Z,28.00
2017-08-03T15:01:01.166Z,28.00
2017-08-03T15:03:31.687Z,28.00
2017-08-03T15:06:02.370Z,28.00
2017-08-03T15:08:34.010Z,28.00
2017-08-03T15:11:05.853Z,28.00
2017-08-03T15:13:36.587Z,28.00
2017-08-03T15:16:10.209Z,27.90
2017-08-03T15:18:40.456Z,27.90
2017-08-03T15:21:10.804Z,27.90
2017-08-03T15:23:41.073Z,27.90
2017-08-03T15:26:11.365Z,27.80
2017-08-03T15:28:42.690Z,27.90
2017-08-03T15:31:14.500Z,27.90
2017-08-03T15:33:45.355Z,27.90
2017-08-03T15:36:15.973Z,27.90
2017-08-03T15:38:46.193Z,27.90
2017-08-03T15:41:18.940Z,27.90
2017-08-03T15:43:49.944Z,27.90
2017-08-03T15:46:21.615Z,28.00
2017-08-03T15:48:52.756Z,28.20
2017-08-03T15:51:23.945Z,28.50
2017-08-03T15:53:56.419Z,28.40
2017-08-03T15:56:27.363Z,28.50
2017-08-03T15:58:58.338Z,28.60
2017-08-03T16:01:33.874Z,28.50
2017-08-03T16:04:05.854Z,28.30
2017-08-03T16:06:36.664Z,28.40
2017-08-03T16:09:07.700Z,28.50
2017-08-03T16:11:40.703Z,28.60
2017-08-03T16:14:11.568Z,28.60
2017-08-03T16:16:45.814Z,28.70
2017-08-03T16:19:16.900Z,28.70
2017-08-03T16:21:47.802Z,28.80
2017-08-03T16:24:18.920Z,28.80
2017-08-03T16:26:50.117Z,28.80
2017-08-03T16:29:20.510Z,28.80
2017-08-03T16:31:53.338Z,28.80
2017-08-03T16:34:24.117Z,28.80
2017-08-03T16:36:55.271Z,28.80
2017-08-03T16:39:28.507Z,28.80
2017-08-03T16:41:58.805Z,28.80
2017-08-03T16:44:29.142Z,28.80
2017-08-03T16:46:59.564Z,28.80
2017-08-03T16:49:29.945Z,28.80
2017-08-03T16:52:00.214Z,28.80
2017-08-03T16:54:30.439Z,28.60
2017-08-03T16:57:03.563Z,28.50
2017-08-03T16:59:36.359Z,28.40
2017-08-03T17:02:11.102Z,28.30
2017-08-03T17:04:42.825Z,28.20
2017-08-03T17:07:15.594Z,28.20
2017-08-03T17:09:46.972Z,28.20
2017-08-03T17:12:17.749Z,28.30
2017-08-03T17:14:49.988Z,28.40
2017-08-03T17:17:20.285Z,28.50
2017-08-03T17:19:50.564Z,28.60
2017-08-03T17:22:20.877Z,28.60
2017-08-03T17:24:52.221Z,28.60
2017-08-03T17:27:23.291Z,28.50
2017-08-03T17:29:56.823Z,28.30
2017-08-03T17:32:28.583Z,28.30
2017-08-03T17:34:59.558Z,28.20
2017-08-03T17:37:31.853Z,28.20
2017-08-03T17:40:02.667Z,28.20
2017-08-03T17:42:33.831Z,28.20
2017-08-03T17:45:04.193Z,28.10
2017-08-03T17:47:34.727Z,28.00
2017-08-03T17:50:05.095Z,28.10
2017-08-03T17:52:35.421Z,28.20
2017-08-03T17:55:05.692Z,28.30
2017-08-03T17:57:36.858Z,28.40
2017-08-03T18:00:07.161Z,28.40
2017-08-03T18:02:38.529Z,28.20
2017-08-03T18:05:08.940Z,28.20
2017-08-03T18:07:42.699Z,28.10
2017-08-03T18:10:13.551Z,28.10
2017-08-03T18:12:47.054Z,28.00
2017-08-03T18:15:18.072Z,28.00
2017-08-03T18:17:48.632Z,27.90
2017-08-03T18:20:18.877Z,27.90
2017-08-03T18:22:49.794Z,27.90
2017-08-03T18:25:21.593Z,27.90
2017-08-03T18:27:52.694Z,28.00
2017-08-03T18:30:23.771Z,28.10
2017-08-03T18:32:56.264Z,28.10
2017-08-03T18:35:29.146Z,28.10
2017-08-03T18:38:04.171Z,27.90
2017-08-03T18:40:38.424Z,27.90
2017-08-03T18:43:11.605Z,27.90
2017-08-03T18:45:45.722Z,27.90
2017-08-03T18:48:20.129Z,28.00
2017-08-03T18:50:51.874Z,28.00
2017-08-03T18:53:23.748Z,27.90
2017-08-03T18:55:54.129Z,27.90
2017-08-03T18:58:24.408Z,27.90
2017-08-03T19:00:58.640Z,28.00
2017-08-03T19:03:29.662Z,28.00
2017-08-03T19:06:02.503Z,28.00
2017-08-03T19:08:33.796Z,28.10
2017-08-03T19:11:05.028Z,28.10
2017-08-03T19:13:36.106Z,28.10
2017-08-03T19:16:06.672Z,28.10
2017-08-03T19:18:37.229Z,28.20
2017-08-03T19:21:08.878Z,28.40
2017-08-03T19:23:40.953Z,28.30
2017-08-03T19:26:16.069Z,28.40
2017-08-03T19:28:46.778Z,28.40
2017-08-03T19:31:17.830Z,28.30
2017-08-03T19:33:48.521Z,28.20
2017-08-03T19:36:20.161Z,28.10
2017-08-03T19:38:53.422Z,28.10
2017-08-03T19:41:26.241Z,27.90
2017-08-03T19:43:58.440Z,27.60
2017-08-03T19:46:29.411Z,27.30
2017-08-03T19:49:02.820Z,27.00
2017-08-03T19:51:35.656Z,26.90
2017-08-03T19:54:09.733Z,26.70
2017-08-03T19:56:45.859Z,26.80
2017-08-03T19:59:17.186Z,26.80
2017-08-03T20:01:48.433Z,26.80
2017-08-03T20:04:18.884Z,26.70
2017-08-03T20:06:50.396Z,26.70
2017-08-03T20:09:39.472Z,26.60
2017-08-03T20:12:10.713Z,26.50
2017-08-03T20:14:41.896Z,26.40
2017-08-03T20:17:12.179Z,26.40
2017-08-03T20:19:43.295Z,26.40
2017-08-03T20:22:14.291Z,26.40
2017-08-03T20:24:47.433Z,26.50
2017-08-03T20:29:54.798Z,26.60
2017-08-03T20:32:26.901Z,26.60
2017-08-03T20:34:57.879Z,26.70
2017-08-03T20:37:28.557Z,26.60
2017-08-03T20:39:59.474Z,26.60
2017-08-03T20:42:30.406Z,26.60
2017-08-03T20:45:01.173Z,26.60
2017-08-03T20:47:32.077Z,26.60
2017-08-03T20:50:03.972Z,26.60
2017-08-03T20:52:34.278Z,26.60
2017-08-03T20:55:04.551Z,26.50
2017-08-03T20:57:34.909Z,26.30
2017-08-03T21:00:05.371Z,26.20
2017-08-03T21:02:35.732Z,26.00
2017-08-03T21:05:06.216Z,25.80
2017-08-03T21:07:36.584Z,25.60
2017-08-03T21:10:07.120Z,25.30
2017-08-03T21:12:37.399Z,25.00
2017-08-03T21:15:07.620Z,24.90
2017-08-03T21:17:37.932Z,24.80
2017-08-03T21:20:08.341Z,24.80
2017-08-03T21:22:38.697Z,24.90
2017-08-03T21:25:08.942Z,24.90
2017-08-03T21:27:39.363Z,24.90
2017-08-03T21:30:09.629Z,25.00
2017-08-03T21:32:39.853Z,25.00
2017-08-03T21:35:10.240Z,25.00
2017-08-03T21:37:40.665Z,25.00
2017-08-03T21:40:11.263Z,25.10
2017-08-03T21:42:44.327Z,25.00
2017-08-03T21:45:15.269Z,24.90
2017-08-03T21:47:48.700Z,24.90
2017-08-03T21:50:20.677Z,24.90
2017-08-03T21:52:51.223Z,24.90
2017-08-03T21:55:21.688Z,24.80
2017-08-03T21:57:51.960Z,24.80
2017-08-03T22:00:22.603Z,24.80
2017-08-03T22:02:53.464Z,24.80
2017-08-03T22:05:24.928Z,24.80
2017-08-03T22:07:55.740Z,24.80
2017-08-03T22:10:26.784Z,24.80
2017-08-03T22:12:57.471Z,24.80
2017-08-03T22:15:27.841Z,24.80
2017-08-03T22:17:58.148Z,24.90
2017-08-03T22:20:30.578Z,24.90
2017-08-03T22:23:01.408Z,24.80
2017-08-03T22:25:35.034Z,24.90
2017-08-03T22:28:06.616Z,25.00
2017-08-03T22:30:37.493Z,24.90
2017-08-03T22:33:07.849Z,24.90
2017-08-03T22:35:38.155Z,24.90
2017-08-03T22:38:08.541Z,25.00
2017-08-03T22:40:38.888Z,25.00
2017-08-03T22:43:09.404Z,25.00
2017-08-03T22:45:39.743Z,25.00
2017-08-03T22:48:14.097Z,25.00
2017-08-03T22:50:45.122Z,25.10
2017-08-03T22:53:19.202Z,25.10
2017-08-03T22:55:50.645Z,25.30
2017-08-03T22:58:23.549Z,25.20
2017-08-03T23:00:54.884Z,25.30
2017-08-03T23:03:25.967Z,25.40
2017-08-03T23:05:57.024Z,25.50
2017-08-03T23:08:27.311Z,25.60
2017-08-03T23:10:58.474Z,25.60
2017-08-03T23:13:28.521Z,25.60
2017-08-03T23:15:59.796Z,25.80
2017-08-03T23:18:30.412Z,25.90
2017-08-03T23:21:01.190Z,25.80
2017-08-03T23:23:33.399Z,25.80
2017-08-03T23:26:03.989Z,25.80
2017-08-03T23:28:35.695Z,25.70
2017-08-03T23:31:09.825Z,25.60
2017-08-03T23:33:45.903Z,25.70
2017-08-03T23:36:17.301Z,25.70
2017-08-03T23:38:48.177Z,25.70
2017-08-03T23:41:22.568Z,25.80
2017-08-03T23:43:53.296Z,25.80
2017-08-03T23:46:23.995Z,25.80
2017-08-03T23:48:54.456Z,26.00
2017-08-03T23:51:24.720Z,26.10
2017-08-03T23:53:55.697Z,26.00
2017-08-03T23:56:26.465Z,25.90
2017-08-03T23:58:57.320Z,25.90
